createdAt,value
2022-12-04T00:01:11.050Z,33.80
2022-12-04T00:03:38.291Z,32.80
2022-12-04T00:06:04.935Z,41.72
2022-12-04T00:08:31.836Z,33.85
2022-12-04T00:10:58.925Z,35.08
2022-12-04T00:13:26.038Z,31.85
2022-12-04T00:15:53.681Z,34.33
2022-12-04T00:18:20.476Z,30.45
2022-12-04T00:20:47.266Z,35.17
2022-12-04T00:23:13.893Z,36.20
2022-12-04T00:25:41.522Z,34.45
2022-12-04T00:28:10.520Z,33.53
2022-12-04T00:30:41.351Z,32.70
2022-12-04T00:33:07.942Z,34.40
2022-12-04T00:35:34.633Z,33.67
2022-12-04T00:38:01.214Z,37.60
2022-12-04T00:40:27.917Z,35.88
2022-12-04T00:42:54.608Z,32.25
2022-12-04T00:45:21.193Z,31.35
2022-12-04T00:47:47.965Z,33.80
2022-12-04T00:50:14.651Z,36.15
2022-12-04T00:52:41.259Z,36.88
2022-12-04T00:55:08.459Z,40.65
2022-12-04T00:57:35.050Z,34.20
2022-12-04T01:00:01.888Z,32.55
2022-12-04T01:02:30.430Z,33.65
2022-12-04T01:04:57.057Z,31.45
2022-12-04T01:07:23.802Z,38.17
2022-12-04T01:09:50.534Z,33.30
2022-12-04T01:12:20.717Z,32.15
2022-12-04T01:14:47.959Z,34.67
2022-12-04T01:17:14.770Z,36.13
2022-12-04T01:19:41.489Z,30.92
2022-12-04T01:22:08.265Z,32.10
2022-12-04T01:24:34.874Z,36.70
2022-12-04T01:27:01.829Z,32.25
2022-12-04T01:29:28.471Z,28.48
2022-12-04T01:31:55.193Z,33.78
2022-12-04T01:34:21.938Z,35.70
2022-12-04T01:36:48.524Z,30.98
2022-12-04T01:39:15.226Z,38.30
2022-12-04T01:41:41.840Z,33.22
2022-12-04T01:44:14.336Z,33.92
2022-12-04T01:46:42.740Z,32.53
2022-12-04T01:49:17.277Z,27.70
2022-12-04T01:51:50.719Z,30.83
2022-12-04T01:54:30.887Z,32.42
2022-12-04T01:57:07.867Z,33.95
2022-12-04T01:59:41.446Z,33.60
2022-12-04T02:02:12.015Z,28.35
2022-12-04T02:04:40.632Z,32.63
2022-12-04T02:07:07.432Z,31.42
2022-12-04T02:09:35.382Z,30.10
2022-12-04T02:12:35.640Z,34.47
2022-12-04T02:15:18.006Z,30.23
2022-12-04T02:18:10.429Z,28.95
2022-12-04T02:20:49.775Z,30.83
2022-12-04T02:23:53.560Z,34.40
2022-12-04T02:26:36.304Z,31.15
2022-12-04T02:29:32.658Z,34.47
2022-12-04T02:32:20.040Z,30.98
2022-12-04T02:35:09.676Z,34.78
2022-12-04T02:37:40.238Z,31.05
2022-12-04T02:40:35.269Z,29.73
2022-12-04T02:43:16.192Z,31.50
2022-12-04T02:46:07.893Z,36.70
2022-12-04T02:48:38.867Z,32.90
2022-12-04T02:51:08.444Z,28.83
2022-12-04T02:53:40.344Z,30.50
2022-12-04T02:56:12.579Z,33.78
2022-12-04T02:58:57.322Z,31.20
2022-12-04T03:01:31.062Z,37.10
2022-12-04T03:04:24.410Z,35.65
2022-12-04T03:07:06.511Z,28.92
2022-12-04T03:09:51.778Z,29.67
2022-12-04T03:12:39.953Z,30.27
2022-12-04T03:15:19.269Z,31.77
2022-12-04T03:18:00.964Z,28.48
2022-12-04T03:20:29.641Z,33.80
2022-12-04T03:23:03.079Z,32.85
2022-12-04T03:25:37.983Z,30.23
2022-12-04T03:28:11.048Z,34.35
2022-12-04T03:30:49.074Z,31.73
2022-12-04T03:33:18.428Z,33.42
2022-12-04T03:35:49.534Z,34.10
2022-12-04T03:38:27.840Z,32.67
2022-12-04T03:41:01.867Z,35.65
2022-12-04T03:43:36.428Z,30.52
2022-12-04T03:46:12.679Z,30.88
2022-12-04T03:48:47.544Z,32.38
2022-12-04T03:51:38.278Z,31.40
2022-12-04T03:54:21.179Z,35.00
2022-12-04T03:56:58.474Z,36.10
2022-12-04T03:59:38.938Z,30.55
2022-12-04T04:02:10.413Z,28.15
2022-12-04T04:04:40.831Z,33.70
2022-12-04T04:07:24.328Z,31.42
2022-12-04T04:09:56.439Z,32.25
2022-12-04T04:12:31.751Z,35.70
2022-12-04T04:15:36.547Z,29.42
2022-12-04T04:18:21.770Z,35.17
2022-12-04T04:21:17.798Z,36.10
2022-12-04T04:24:07.773Z,33.65
2022-12-04T04:26:42.588Z,30.25
2022-12-04T04:29:10.262Z,31.35
2022-12-04T04:31:53.395Z,36.80
2022-12-04T04:34:32.100Z,36.65
2022-12-04T04:37:06.216Z,32.80
2022-12-04T04:39:47.858Z,33.20
2022-12-04T04:42:23.094Z,32.70
2022-12-04T04:44:53.373Z,30.45
2022-12-04T04:47:47.084Z,32.88
2022-12-04T04:50:15.946Z,34.70
2022-12-04T04:52:47.278Z,34.28
2022-12-04T04:55:16.181Z,37.33
2022-12-04T04:57:42.924Z,30.55
2022-12-04T05:00:15.495Z,31.90
2022-12-04T05:02:42.711Z,32.10
2022-12-04T05:05:10.316Z,31.20
2022-12-04T05:07:36.926Z,35.13
2022-12-04T05:10:05.343Z,35.22
2022-12-04T05:12:31.962Z,33.40
2022-12-04T05:14:58.632Z,31.50
2022-12-04T05:17:25.236Z,33.53
2022-12-04T05:19:55.695Z,33.65
2022-12-04T05:22:27.563Z,33.40
2022-12-04T05:24:54.754Z,30.55
2022-12-04T05:27:22.376Z,36.30
2022-12-04T05:29:51.618Z,32.95
2022-12-04T05:32:18.241Z,34.47
2022-12-04T05:34:48.304Z,34.88
2022-12-04T05:37:15.037Z,37.17
2022-12-04T05:39:41.797Z,34.58
2022-12-04T05:42:08.597Z,30.63
2022-12-04T05:44:35.478Z,35.03
2022-12-04T05:47:02.420Z,28.63
2022-12-04T05:49:30.036Z,32.53
2022-12-04T05:51:56.825Z,30.13
2022-12-04T05:54:23.720Z,31.20
2022-12-04T05:56:50.715Z,31.23
2022-12-04T05:59:17.718Z,34.05
2022-12-04T06:01:44.913Z,35.78
2022-12-04T06:04:11.889Z,30.20
2022-12-04T06:06:39.000Z,30.23
2022-12-04T06:09:07.671Z,32.78
2022-12-04T06:11:37.084Z,27.27
2022-12-04T06:14:06.346Z,33.88
2022-12-04T06:16:35.676Z,34.10
2022-12-04T06:19:05.604Z,34.45
2022-12-04T06:21:36.314Z,28.08
2022-12-04T06:24:03.220Z,33.28
2022-12-04T06:26:29.881Z,28.25
2022-12-04T06:28:58.101Z,29.58
2022-12-04T06:31:27.149Z,32.58
2022-12-04T06:33:55.363Z,30.23
2022-12-04T06:36:22.517Z,29.05
2022-12-04T06:38:50.502Z,26.48
2022-12-04T06:41:19.959Z,26.25
2022-12-04T06:43:46.784Z,23.17
2022-12-04T06:46:16.727Z,25.35
2022-12-04T06:48:43.500Z,22.50
2022-12-04T06:51:15.241Z,22.33
2022-12-04T06:53:42.588Z,26.80
2022-12-04T06:56:12.985Z,24.58
2022-12-04T06:58:39.979Z,22.52
2022-12-04T07:01:09.017Z,25.75
2022-12-04T07:03:36.023Z,21.05
2022-12-04T07:06:18.097Z,23.52
2022-12-04T07:08:46.812Z,27.30
2022-12-04T07:11:14.352Z,20.02
2022-12-04T07:13:41.637Z,19.05
2022-12-04T07:16:11.077Z,23.20
2022-12-04T07:18:37.864Z,19.85
2022-12-04T07:21:09.404Z,23.38
2022-12-04T07:23:36.691Z,24.02
2022-12-04T07:26:08.213Z,20.23
2022-12-04T07:28:36.825Z,19.50
2022-12-04T07:31:08.322Z,22.90
2022-12-04T07:33:35.429Z,20.48
2022-12-04T07:36:05.579Z,19.88
2022-12-04T07:38:33.392Z,22.75
2022-12-04T07:41:00.734Z,19.80
2022-12-04T07:43:29.188Z,17.05
2022-12-04T07:45:56.449Z,23.85
2022-12-04T07:48:23.246Z,21.55
2022-12-04T07:50:50.051Z,19.58
2022-12-04T07:53:16.760Z,20.02
2022-12-04T07:55:43.329Z,20.95
2022-12-04T07:58:09.977Z,20.50
2022-12-04T08:00:36.591Z,21.80
2022-12-04T08:03:03.162Z,23.70
2022-12-04T08:05:29.914Z,20.15
2022-12-04T08:07:56.605Z,22.75
2022-12-04T08:10:23.263Z,20.48
2022-12-04T08:12:50.008Z,21.35
2022-12-04T08:15:16.801Z,23.70
2022-12-04T08:17:43.369Z,21.25
2022-12-04T08:20:10.401Z,22.77
2022-12-04T08:22:37.078Z,22.55
2022-12-04T08:25:03.928Z,23.45
2022-12-04T08:27:30.664Z,20.63
2022-12-04T08:29:57.579Z,22.50
2022-12-04T08:32:24.460Z,21.65
2022-12-04T08:34:55.755Z,21.58
2022-12-04T08:37:22.813Z,20.30
2022-12-04T08:39:49.627Z,23.60
2022-12-04T08:42:16.237Z,21.35
2022-12-04T08:44:42.815Z,20.00
2022-12-04T08:47:09.449Z,19.85
2022-12-04T08:49:36.057Z,24.40
2022-12-04T08:52:02.651Z,23.92
2022-12-04T08:54:34.505Z,25.95
2022-12-04T08:57:03.271Z,21.25
2022-12-04T08:59:29.949Z,22.15
2022-12-04T09:01:56.635Z,21.45
2022-12-04T09:04:23.325Z,24.45
2022-12-04T09:06:50.088Z,23.90
2022-12-04T09:09:16.860Z,27.58
2022-12-04T09:11:46.493Z,24.98
2022-12-04T09:14:13.236Z,26.05
2022-12-04T09:16:39.942Z,25.67
2022-12-04T09:19:06.609Z,28.42
2022-12-04T09:21:33.295Z,21.05
2022-12-04T09:24:00.146Z,26.13
2022-12-04T09:26:29.754Z,28.48
2022-12-04T09:28:58.551Z,24.42
2022-12-04T09:31:25.717Z,25.07
2022-12-04T09:33:52.923Z,26.63
2022-12-04T09:36:20.170Z,31.40
2022-12-04T09:38:49.699Z,27.35
2022-12-04T09:41:58.049Z,24.48
2022-12-04T09:44:38.582Z,28.08
2022-12-04T09:47:24.052Z,27.33
2022-12-04T09:49:55.986Z,26.90
2022-12-04T09:52:50.346Z,27.13
2022-12-04T09:55:31.475Z,29.70
2022-12-04T09:58:02.580Z,25.52
2022-12-04T10:00:33.673Z,23.42
2022-12-04T10:03:14.210Z,21.55
2022-12-04T10:05:56.431Z,24.05
2022-12-04T10:08:33.024Z,24.17
2022-12-04T10:11:22.274Z,21.02
2022-12-04T10:13:57.834Z,26.48
2022-12-04T10:16:28.349Z,20.42
2022-12-04T10:19:07.262Z,24.95
2022-12-04T10:22:15.901Z,23.17
2022-12-04T10:24:51.543Z,24.83
2022-12-04T10:27:48.803Z,25.60
2022-12-04T10:30:31.120Z,21.67
2022-12-04T10:33:03.690Z,22.67
2022-12-04T10:35:32.362Z,22.50
2022-12-04T10:38:04.153Z,21.90
2022-12-04T10:40:55.868Z,21.63
2022-12-04T10:43:43.014Z,24.33
2022-12-04T10:46:22.840Z,25.58
2022-12-04T10:49:12.425Z,23.90
2022-12-04T10:51:41.005Z,27.33
2022-12-04T10:54:21.364Z,20.83
2022-12-04T10:57:03.606Z,25.13
2022-12-04T10:59:30.951Z,27.13
2022-12-04T11:02:22.598Z,22.60
2022-12-04T11:05:07.858Z,29.33
2022-12-04T11:07:47.329Z,29.40
2022-12-04T11:10:43.208Z,23.02
2022-12-04T11:13:12.677Z,23.40
2022-12-04T11:15:50.379Z,25.92
2022-12-04T11:18:18.512Z,27.40
2022-12-04T11:20:50.944Z,24.70
2022-12-04T11:23:18.191Z,23.70
2022-12-04T11:25:50.977Z,24.40
2022-12-04T11:31:18.122Z,23.50
2022-12-04T11:33:49.786Z,22.95
2022-12-04T11:36:28.410Z,22.52
2022-12-04T11:39:16.348Z,22.17
2022-12-04T11:41:43.316Z,21.50
2022-12-04T11:44:26.585Z,21.23
2022-12-04T11:46:59.149Z,21.55
2022-12-04T11:49:27.964Z,21.05
2022-12-04T11:52:18.911Z,21.48
2022-12-04T11:54:51.391Z,20.70
2022-12-04T11:57:42.383Z,20.05
2022-12-04T12:00:16.214Z,20.77
2022-12-04T12:03:20.813Z,18.45
2022-12-04T12:06:03.044Z,18.40
2022-12-04T12:08:59.989Z,20.65
2022-12-04T12:11:35.834Z,21.90
2022-12-04T12:14:16.770Z,19.88
2022-12-04T12:19:47.492Z,19.25
2022-12-04T12:22:31.905Z,37.67
2022-12-04T12:25:04.699Z,20.35
2022-12-04T12:27:48.034Z,18.23
2022-12-04T12:30:22.493Z,21.45
2022-12-04T12:32:55.295Z,22.35
2022-12-04T12:35:35.736Z,20.85
2022-12-04T12:38:09.902Z,21.60
2022-12-04T12:40:42.780Z,19.30
2022-12-04T12:43:21.127Z,19.88
2022-12-04T12:46:02.860Z,19.70
2022-12-04T12:48:58.365Z,20.17
2022-12-04T12:52:00.164Z,20.83
2022-12-04T12:54:51.047Z,18.77
2022-12-04T12:57:42.189Z,20.85
2022-12-04T13:00:18.235Z,16.10
2022-12-04T13:03:01.433Z,21.92
2022-12-04T13:05:40.703Z,17.98
2022-12-04T13:08:49.260Z,15.93
2022-12-04T13:11:23.517Z,18.52
2022-12-04T13:14:03.090Z,16.63
2022-12-04T13:16:41.944Z,17.13
2022-12-04T13:19:13.048Z,17.35
2022-12-04T13:22:02.272Z,21.08
2022-12-04T13:24:40.322Z,15.02
2022-12-04T13:27:17.488Z,16.48
2022-12-04T13:30:14.360Z,19.35
2022-12-04T13:33:05.584Z,18.17
2022-12-04T13:36:03.004Z,18.23
2022-12-04T13:38:58.779Z,20.25
2022-12-04T13:41:27.637Z,18.25
2022-12-04T13:43:55.560Z,15.23
2022-12-04T13:46:35.392Z,19.92
2022-12-04T13:49:20.188Z,19.27
2022-12-04T13:51:49.038Z,19.38
2022-12-04T13:54:15.628Z,17.90
2022-12-04T13:56:47.945Z,18.40
2022-12-04T13:59:30.973Z,18.58
2022-12-04T14:02:04.931Z,20.80
2022-12-04T14:04:53.675Z,22.25
2022-12-04T14:07:37.032Z,24.17
2022-12-04T14:10:14.137Z,20.42
2022-12-04T14:12:49.415Z,24.35
2022-12-04T14:15:25.972Z,23.13
2022-12-04T14:18:02.755Z,26.80
2022-12-04T14:20:32.428Z,23.48
2022-12-04T14:23:36.559Z,32.70
2022-12-04T14:26:05.293Z,26.98
2022-12-04T14:28:34.930Z,26.53
2022-12-04T14:31:21.539Z,31.60
2022-12-04T14:33:58.961Z,32.88
2022-12-04T14:36:33.341Z,27.58
2022-12-04T14:39:33.342Z,33.17
2022-12-04T14:42:15.141Z,29.33
2022-12-04T14:44:44.875Z,27.10
2022-12-04T14:49:53.863Z,26.58
2022-12-04T14:52:49.754Z,29.48
2022-12-04T14:55:48.854Z,25.10
2022-12-04T14:58:29.795Z,25.98
2022-12-04T15:01:01.907Z,28.73
2022-12-04T15:03:32.207Z,27.48
2022-12-04T15:06:08.548Z,22.85
2022-12-04T15:08:35.559Z,24.95
2022-12-04T15:11:24.934Z,25.25
2022-12-04T15:13:51.683Z,22.73
2022-12-04T15:16:22.682Z,23.92
2022-12-04T15:18:58.080Z,26.77
2022-12-04T15:21:40.728Z,20.65
2022-12-04T15:24:20.226Z,25.88
2022-12-04T15:26:48.346Z,19.88
2022-12-04T15:29:22.151Z,30.10
2022-12-04T15:31:56.507Z,21.95
2022-12-04T15:34:36.662Z,22.90
2022-12-04T15:37:12.418Z,22.67
2022-12-04T15:39:39.907Z,23.35
2022-12-04T15:42:28.325Z,21.52
2022-12-04T15:45:02.188Z,21.50
2022-12-04T15:47:40.968Z,25.13
2022-12-04T15:50:13.240Z,21.80
2022-12-04T15:52:56.662Z,25.48
2022-12-04T15:55:25.038Z,29.33
2022-12-04T15:57:56.113Z,26.23
2022-12-04T16:00:25.554Z,23.42
2022-12-04T16:02:52.441Z,19.88
2022-12-04T16:05:22.204Z,24.13
2022-12-04T16:10:35.994Z,24.88
2022-12-04T16:13:05.253Z,23.98
2022-12-04T16:15:40.951Z,27.35
2022-12-04T16:18:10.787Z,21.30
2022-12-04T16:23:05.604Z,22.13
2022-12-04T16:25:32.843Z,25.08
2022-12-04T16:28:00.404Z,25.00
2022-12-04T16:30:33.790Z,27.15
2022-12-04T16:33:00.524Z,23.20
2022-12-04T16:35:27.201Z,27.50
2022-12-04T16:37:53.909Z,25.23
2022-12-04T16:40:20.561Z,25.33
2022-12-04T16:42:47.198Z,26.92
2022-12-04T16:45:48.200Z,28.60
2022-12-04T16:48:15.439Z,27.30
2022-12-04T16:50:42.693Z,24.70
2022-12-04T16:53:17.435Z,27.35
2022-12-04T16:55:46.748Z,23.77
2022-12-04T16:58:13.790Z,21.58
2022-12-04T17:00:43.626Z,22.55
2022-12-04T17:03:30.509Z,27.35
2022-12-04T17:05:58.653Z,20.63
2022-12-04T17:08:25.264Z,23.13
2022-12-04T17:10:52.804Z,19.58
2022-12-04T17:13:21.502Z,22.95
2022-12-04T17:15:48.693Z,23.20
2022-12-04T17:18:20.758Z,23.17
2022-12-04T17:20:48.059Z,24.10
2022-12-04T17:23:14.862Z,19.38
2022-12-04T17:25:41.582Z,25.42
2022-12-04T17:28:08.328Z,24.30
2022-12-04T17:30:36.376Z,21.20
2022-12-04T17:33:04.593Z,24.15
2022-12-04T17:35:31.464Z,24.08
2022-12-04T17:38:03.870Z,23.85
2022-12-04T17:40:32.447Z,21.75
2022-12-04T17:42:59.544Z,26.23
2022-12-04T17:45:26.413Z,101.25
2022-12-04T17:47:53.073Z,48.58
2022-12-04T17:50:19.694Z,36.47
2022-12-04T17:52:46.383Z,28.23
2022-12-04T17:55:13.952Z,32.95
2022-12-04T17:57:40.559Z,53.10
2022-12-04T18:00:08.094Z,37.35
2022-12-04T18:02:34.906Z,31.52
2022-12-04T18:05:01.679Z,79.90
2022-12-04T18:07:28.300Z,33.25
2022-12-04T18:09:55.419Z,23.25
2022-12-04T18:12:22.267Z,34.35
2022-12-04T18:14:48.856Z,31.25
2022-12-04T18:17:17.619Z,29.88
2022-12-04T18:19:44.271Z,36.73
2022-12-04T18:22:11.054Z,26.30
2022-12-04T18:24:37.696Z,24.10
2022-12-04T18:27:05.298Z,35.90
2022-12-04T18:29:31.907Z,32.88
2022-12-04T18:31:58.542Z,21.38
2022-12-04T18:34:25.349Z,23.05
2022-12-04T18:36:52.361Z,23.20
2022-12-04T18:39:21.748Z,25.10
2022-12-04T18:41:49.063Z,19.95
2022-12-04T18:44:17.349Z,25.23
2022-12-04T18:46:43.980Z,22.77
2022-12-04T18:49:10.945Z,22.40
2022-12-04T18:51:46.993Z,19.45
2022-12-04T18:54:21.795Z,44.20
2022-12-04T18:56:48.997Z,29.67
2022-12-04T18:59:18.931Z,41.70
2022-12-04T19:01:46.288Z,142.18
2022-12-04T19:04:16.637Z,59.22
2022-12-04T19:06:45.849Z,93.70
2022-12-04T19:09:18.532Z,50.05
2022-12-04T19:11:46.124Z,52.30
2022-12-04T19:14:21.004Z,50.08
2022-12-04T19:16:50.009Z,54.90
2022-12-04T19:19:17.035Z,49.22
2022-12-04T19:21:44.534Z,45.70
2022-12-04T19:24:11.618Z,48.10
2022-12-04T19:26:38.558Z,48.75
2022-12-04T19:29:07.041Z,48.08
2022-12-04T19:31:35.772Z,53.97
2022-12-04T19:34:03.391Z,55.13
2022-12-04T19:36:31.264Z,50.30
2022-12-04T19:38:58.700Z,49.85
2022-12-04T19:41:29.965Z,53.00
2022-12-04T19:43:58.807Z,52.63
2022-12-04T19:46:28.672Z,42.60
2022-12-04T19:48:58.384Z,38.65
2022-12-04T19:51:25.527Z,37.60
2022-12-04T19:53:53.459Z,34.80
2022-12-04T19:56:25.485Z,34.53
2022-12-04T19:58:53.979Z,30.98
2022-12-04T20:01:25.348Z,42.22
2022-12-04T20:03:52.747Z,34.03
2022-12-04T20:06:21.248Z,33.97
2022-12-04T20:08:57.226Z,39.00
2022-12-04T20:11:25.026Z,61.95
2022-12-04T20:13:55.503Z,91.25
2022-12-04T20:16:24.445Z,47.58
2022-12-04T20:18:53.466Z,48.10
2022-12-04T20:21:21.397Z,73.15
2022-12-04T20:23:50.011Z,58.53
2022-12-04T20:26:28.533Z,42.08
2022-12-04T20:28:56.939Z,45.35
2022-12-04T20:31:24.891Z,37.42
2022-12-04T20:33:54.432Z,66.18
2022-12-04T20:36:23.773Z,61.15
2022-12-04T20:38:52.733Z,35.00
2022-12-04T20:41:20.255Z,38.50
2022-12-04T20:43:48.176Z,33.70
2022-12-04T20:46:26.736Z,36.55
2022-12-04T20:48:53.887Z,36.72
2022-12-04T20:51:27.468Z,36.65
2022-12-04T20:53:55.435Z,33.47
2022-12-04T20:56:24.433Z,35.70
2022-12-04T20:58:52.790Z,37.47
2022-12-04T21:01:19.963Z,34.65
2022-12-04T21:03:47.267Z,37.33
2022-12-04T21:06:20.024Z,32.50
2022-12-04T21:08:53.716Z,37.03
2022-12-04T21:11:21.810Z,33.55
2022-12-04T21:14:07.079Z,36.10
2022-12-04T21:16:33.904Z,39.13
2022-12-04T21:19:01.280Z,35.58
2022-12-04T21:21:27.938Z,39.17
2022-12-04T21:23:54.741Z,36.72
2022-12-04T21:26:22.139Z,39.95
2022-12-04T21:28:48.784Z,37.47
2022-12-04T21:31:15.485Z,37.10
2022-12-04T21:33:42.067Z,35.88
2022-12-04T21:36:09.696Z,36.35
2022-12-04T21:38:38.025Z,32.78
2022-12-04T21:41:07.567Z,35.30
2022-12-04T21:43:36.470Z,35.67
2022-12-04T21:46:09.628Z,36.30
2022-12-04T21:48:37.027Z,39.15
2022-12-04T21:51:13.233Z,40.67
2022-12-04T21:56:22.553Z,45.00
2022-12-04T21:58:49.292Z,37.83
2022-12-04T22:01:18.467Z,36.90
2022-12-04T22:03:45.710Z,38.85
2022-12-04T22:06:12.719Z,40.40
2022-12-04T22:08:41.124Z,46.95
2022-12-04T22:11:09.609Z,46.60
2022-12-04T22:13:37.265Z,52.45
2022-12-04T22:16:06.176Z,77.65
2022-12-04T22:18:33.778Z,47.40
2022-12-04T22:21:03.477Z,46.33
2022-12-04T22:25:56.734Z,47.03
2022-12-04T22:28:23.390Z,61.00
2022-12-04T22:30:50.244Z,52.80
2022-12-04T22:33:16.855Z,48.58
2022-12-04T22:35:43.456Z,54.95
2022-12-04T22:38:10.215Z,50.60
2022-12-04T22:40:37.761Z,48.40
2022-12-04T22:43:04.454Z,49.85
2022-12-04T22:45:31.038Z,52.47
2022-12-04T22:47:57.616Z,51.00
2022-12-04T22:50:24.206Z,47.78
2022-12-04T22:52:50.862Z,49.00
2022-12-04T22:55:17.596Z,53.35
2022-12-04T22:57:44.159Z,51.58
2022-12-04T23:00:11.270Z,54.63
2022-12-04T23:02:37.939Z,52.10
2022-12-04T23:05:04.868Z,55.50
2022-12-04T23:07:31.625Z,50.28
2022-12-04T23:09:58.384Z,59.50
2022-12-04T23:12:25.521Z,56.95
2022-12-04T23:14:52.198Z,56.25
2022-12-04T23:17:18.833Z,51.28
2022-12-04T23:19:45.592Z,59.20
2022-12-04T23:22:12.236Z,58.00
2022-12-04T23:24:38.990Z,58.22
2022-12-04T23:27:05.597Z,56.78
2022-12-04T23:32:19.186Z,50.83
2022-12-04T23:34:46.119Z,51.25
2022-12-04T23:37:12.786Z,51.70
2022-12-04T23:39:39.369Z,52.78
2022-12-04T23:42:06.276Z,48.58
2022-12-04T23:44:32.920Z,55.35
2022-12-04T23:46:59.567Z,43.67
2022-12-04T23:49:26.370Z,42.50
2022-12-04T23:51:53.126Z,48.95
2022-12-04T23:54:19.736Z,49.33
2022-12-04T23:56:46.435Z,49.55
2022-12-04T23:59:13.124Z,44.95
